17/8/18
Time         Wind Dir  Wind Gust   Humidity       Temp   Tot Rain Wind Chill Heat Index  Dew Point   Barom SL Temp Out H Temp Out L  DailyRain   HourRain   24HrRain   RainRate   Wind Run   Deg Heat   Deg Cool  MonthRain
                          km/hr          %         C         mm         C         C         C         mb         C         C         mm         mm         mm      mm/hr         km         C         C         mm
0:00              225        8.0         76       20.1      461.6       20.1       22.1       15.7     1015.4       20.1       20.1        0.0        0.0        0.0       0.00      138.2       0.00       2.17        0.0
0:02              225        8.0         76       20.1      461.6       20.1       22.2       15.8     1015.4       20.1       20.1        0.0        0.0        0.0       0.00        0.2       0.00       0.00        0.0
0:03              225        8.0         76       20.1      461.6       20.1       22.2       15.8     1015.4       20.1       20.1        0.0        0.0        0.0       0.00        0.4       0.00       0.00        0.0
0:06              225        4.8         75       20.1      461.6       20.1       22.1       15.5     1015.4       20.1       20.1        0.0        0.0        0.0       0.00        0.5       0.00       0.00        0.0
0:08              225        4.8         75       20.1      461.6       20.1       22.1       15.5     1015.3       20.1       20.1        0.0        0.0        0.0       0.00        0.7       0.00       0.00        0.0
0:10              225        6.4         75       20.2      461.6       20.2       22.2       15.6     1015.4       20.2       20.1        0.0        0.0        0.0       0.00        0.8       0.00       0.00        0.0
0:12              225        6.4         75       20.2      461.6       20.2       22.2       15.6     1015.4       20.2       20.1        0.0        0.0        0.0       0.00        1.0       0.00       0.00        0.0
0:14              226        8.0         76       20.2      461.6       19.5       22.2       15.8     1015.3       20.2       20.1        0.0        0.0        0.0       0.00        1.3       0.00       0.00        0.0
0:16              226        9.7         76       20.2      461.6       19.5       22.2       15.8     1015.3       20.2       20.1        0.0        0.0        0.0       0.00        1.5       0.00       0.00        0.0
0:17              227        8.0         76       20.2      461.6       20.2       22.3       15.9     1015.3       20.2       20.1        0.0        0.0        0.0       0.00        1.7       0.00       0.00        0.0
0:20              228        6.4         76       20.2      461.6       20.2       22.2       15.8     1015.2       20.2       20.1        0.0        0.0        0.0       0.00        2.0       0.00       0.00        0.0
0:22              229        6.4         76       20.2      461.6       20.2       22.3       15.9     1015.3       20.2       20.1        0.0        0.0        0.0       0.00        2.1       0.00       0.00        0.0
0:23              229        8.0         76       20.2      461.6       19.5       22.3       15.9     1015.2       20.2       20.1        0.0        0.0        0.0       0.00        2.3       0.00       0.00        0.0
0:26              229        6.4         76       20.2      461.6       20.2       22.3       15.9     1015.2       20.2       20.1        0.0        0.0        0.0       0.00        2.5       0.00       0.00        0.0
0:28              229        8.0         76       20.3      461.6       19.6       22.3       15.9     1015.1       20.3       20.1        0.0        0.0        0.0       0.00        2.7       0.00       0.00        0.0
0:30              229        6.4         76       20.3      461.6       20.3       22.3       15.9     1015.0       20.3       20.1        0.0        0.0        0.0       0.00        2.9       0.00       0.00        0.0
0:32              229        8.0         75       20.3      461.6       20.3       22.3       15.8     1015.0       20.3       20.1        0.0        0.0        0.0       0.00        3.1       0.00       0.00        0.0
0:34              228        6.4         75       20.3      461.6       20.3       22.3       15.8     1015.0       20.3       20.1        0.0        0.0        0.0       0.00        3.3       0.00       0.00        0.0
0:36              228        4.8         75       20.3      461.6       20.3       22.3       15.8     1015.0       20.3       20.1        0.0        0.0        0.0       0.00        3.4       0.00       0.00        0.0
0:38              228        6.4         76       20.3      461.6       20.3       22.3       15.9     1015.0       20.3       20.1        0.0        0.0        0.0       0.00        3.6       0.00       0.00        0.0
0:40              228        6.4         76       20.3      461.6       20.3       22.4       16.0     1015.0       20.3       20.1        0.0        0.0        0.0       0.00        3.7       0.00       0.00        0.0
0:42              228        8.0         76       20.3      461.6       20.3       22.4       16.0     1015.1       20.3       20.1        0.0        0.0        0.0       0.00        3.9       0.00       0.00        0.0
0:43              228        4.8         76       20.3      461.6       20.3       22.4       16.0     1015.0       20.3       20.1        0.0        0.0        0.0       0.00        4.1       0.00       0.00        0.0
0:46              228        8.0         76       20.3      461.6       19.6       22.4       16.0     1015.0       20.3       20.1        0.0        0.0        0.0       0.00        4.3       0.00       0.00        0.0
0:48              228        4.8         76       20.3      461.6       20.3       22.4       16.0     1015.0       20.3       20.1        0.0        0.0        0.0       0.00        4.4       0.00       0.00        0.0
0:50              228        6.4         76       20.3      461.6       20.3       22.4       16.0     1015.1       20.3       20.1        0.0        0.0        0.0       0.00        4.6       0.00       0.00        0.0
0:52              229        6.4         76       20.3      461.6       20.3       22.4       16.0     1015.0       20.3       20.1        0.0        0.0        0.0       0.00        4.8       0.00       0.00        0.0
0:54              229        4.8         76       20.4      461.6       20.4       22.4       16.0     1015.0       20.4       20.1        0.0        0.0        0.0       0.00        5.0       0.00       0.00        0.0
0:56              228        4.8         76       20.4      461.6       20.4       22.4       16.0     1014.9       20.4       20.1        0.0        0.0        0.0       0.00        5.1       0.00       0.00        0.0
0:58              228        6.4         76       20.4      461.6       20.4       22.4       16.0     1014.9       20.4       20.1        0.0        0.0        0.0       0.00        5.3       0.00       0.00        0.0
1:00              229        8.0         76       20.3      461.6       20.3       22.4       16.0     1014.8       20.4       20.1        0.0        0.0        0.0       0.00        5.5       0.00       0.00        0.0
1:02              229        8.0         76       20.3      461.6       20.3       22.4       16.0     1014.8       20.4       20.1        0.0        0.0        0.0       0.00        5.7       0.00       0.00        0.0
1:04              229        8.0         76       20.3      461.6       19.6       22.4       16.0     1014.9       20.4       20.1        0.0        0.0        0.0       0.00        6.0       0.00       0.00        0.0
1:06              229        8.0         76       20.3      461.6       19.6       22.4       16.0     1014.8       20.4       20.1        0.0        0.0        0.0       0.00        6.2       0.00       0.00        0.0
1:08              234       11.3         77       20.3      461.6       20.3       22.4       16.1     1014.8       20.4       20.1        0.0        0.0        0.0       0.00        6.5       0.00       0.00        0.0
1:10              236        8.0         77       20.3      461.6       19.6       22.4       16.1     1014.7       20.4       20.1        0.0        0.0        0.0       0.00        6.7       0.00       0.00        0.0
1:12              237        8.0         77       20.3      461.6       20.3       22.5       16.2     1014.7       20.4       20.1        0.0        0.0        0.0       0.00        7.0       0.00       0.00        0.0
1:14              238        8.0         77       20.3      461.6       20.3       22.5       16.2     1014.7       20.4       20.1        0.0        0.0        0.0       0.00        7.2       0.00       0.00        0.0
1:16              239        8.0         77       20.3      461.6       20.3       22.4       16.1     1014.7       20.4       20.1        0.0        0.0        0.0       0.00        7.5       0.00       0.00        0.0
1:18              239        6.4         77       20.3      461.6       20.3       22.4       16.1     1014.6       20.4       20.1        0.0        0.0        0.0       0.00        7.7       0.00       0.00        0.0
1:20              240        8.0         77       20.3      461.6       20.3       22.4       16.1     1014.7       20.4       20.1        0.0        0.0        0.0       0.00        7.9       0.00       0.00        0.0
1:22              241        6.4         77       20.2      461.6       20.2       22.4       16.1     1014.7       20.4       20.1        0.0        0.0        0.0       0.00        8.1       0.00       0.00        0.0
1:24              242        6.4         77       20.2      461.6       20.2       22.4       16.1     1014.7       20.4       20.1        0.0        0.0        0.0       0.00        8.3       0.00       0.00        0.0
1:26              244       12.9         77       20.2      461.6       19.5       22.4       16.1     1014.7       20.4       20.1        0.0        0.0        0.0       0.00        8.6       0.00       0.00        0.0
1:28              245        6.4         77       20.2      461.6       20.2       22.4       16.1     1014.6       20.4       20.1        0.0        0.0        0.0       0.00        8.7       0.00       0.00        0.0
1:30              245        6.4         77       20.2      461.6       20.2       22.4       16.1     1014.6       20.4       20.1        0.0        0.0        0.0       0.00        8.9       0.00       0.00        0.0
1:32              245        6.4         77       20.2      461.6       20.2       22.4       16.1     1014.7       20.4       20.1        0.0        0.0        0.0       0.00        9.1       0.00       0.00        0.0
1:34              246        8.0         77       20.3      461.6       19.6       22.4       16.1     1014.7       20.4       20.1        0.0        0.0        0.0       0.00        9.3       0.00       0.00        0.0
1:36              248        6.4         77       20.3      461.6       20.3       22.4       16.1     1014.6       20.4       20.1        0.0        0.0        0.0       0.00        9.5       0.00       0.00        0.0
1:38              248        8.0         77       20.3      461.6       19.6       22.5       16.2     1014.6       20.4       20.1        0.0        0.0        0.0       0.00        9.7       0.00       0.00        0.0
1:40              248        6.4         77       20.4      461.6       20.4       22.5       16.2     1014.5       20.4       20.1        0.0        0.0        0.0       0.00        9.9       0.00       0.00        0.0
1:42              250        8.0         77       20.4      461.6       19.7       22.5       16.2     1014.6       20.4       20.1        0.0        0.0        0.0       0.00       10.1       0.00       0.00        0.0
1:44              250        8.0         77       20.4      461.6       20.4       22.6       16.3     1014.6       20.4       20.1        0.0        0.0        0.0       0.00       10.4       0.00       0.00        0.0
1:45              250        6.4         77       20.4      461.6       20.4       22.6       16.3     1014.6       20.4       20.1        0.0        0.0        0.0       0.00       10.6       0.00       0.00        0.0
1:48              250        6.4         77       20.5      461.6       20.5       22.6       16.3     1014.6       20.5       20.1        0.0        0.0        0.0       0.00       10.7       0.00       0.00        0.0
1:50              250        6.4         77       20.4      461.6       20.4       22.6       16.3     1014.5       20.5       20.1        0.0        0.0        0.0       0.00       10.9       0.00       0.00        0.0
1:52              250        6.4         77       20.5      461.6       20.5       22.6       16.3     1014.6       20.5       20.1        0.0        0.0        0.0       0.00       11.1       0.00       0.00        0.0
1:54              250        6.4         77       20.5      461.6       20.5       22.6       16.3     1014.6       20.5       20.1        0.0        0.0        0.0       0.00       11.2       0.00       0.00        0.0
1:56              250        6.4         77       20.5      461.6       20.5       22.6       16.3     1014.7       20.6       20.1        0.0        0.0        0.0       0.00       11.3       0.00       0.00        0.0
1:58              250        0.0         76       20.6      461.6       20.6       22.6       16.2     1014.6       20.6       20.1        0.0        0.0        0.0       0.00       11.4       0.00       0.00        0.0
2:00              250        0.0         76       20.6      461.6       20.6       22.6       16.2     1014.7       20.6       20.1        0.0        0.0        0.0       0.00       11.4       0.00       0.00        0.0
2:02              250        0.0         76       20.6      461.6       20.6       22.6       16.2     1014.7       20.6       20.1        0.0        0.0        0.0       0.00       11.4       0.00       0.00        0.0
2:04              250        0.0         76       20.6      461.6       20.6       22.6       16.2     1014.7       20.6       20.1        0.0        0.0        0.0       0.00       11.4       0.00       0.00        0.0
2:06              250        0.0         76       20.6      461.6       20.6       22.6       16.2     1014.7       20.6       20.1        0.0        0.0        0.0       0.00       11.4       0.00       0.00        0.0
2:08              250        0.0         76       20.6      461.6       20.6       22.6       16.2     1014.7       20.6       20.1        0.0        0.0        0.0       0.00       11.4       0.00       0.00        0.0
2:10              250        0.0         76       20.6      461.6       20.6       22.6       16.2     1014.7       20.6       20.1        0.0        0.0        0.0       0.00       11.4       0.00       0.00        0.0
2:12              250        0.0         76       20.6      461.6       20.6       22.6       16.2     1014.6       20.6       20.1        0.0        0.0        0.0       0.00       11.4       0.00       0.00        0.0
2:14              250        0.0         76       20.6      461.6       20.6       22.6       16.2     1014.7       20.6       20.1        0.0        0.0        0.0       0.00       11.4       0.00       0.00        0.0
2:15              250        0.0         76       20.5      461.6       20.5       22.6       16.1     1014.7       20.6       20.1        0.0        0.0        0.0       0.00       11.4       0.00       0.00        0.0
2:18              250        0.0         76       20.5      461.6       20.5       22.6       16.1     1014.7       20.6       20.1        0.0        0.0        0.0       0.00       11.4       0.00       0.00        0.0
2:20              250        0.0         76       20.4      461.6       20.4       22.5       16.1     1014.6       20.6       20.1        0.0        0.0        0.0       0.00       11.4       0.00       0.00        0.0
2:22              250        0.0         76       20.4      461.6       20.4       22.4       16.0     1014.7       20.6       20.1        0.0        0.0        0.0       0.00       11.4       0.00       0.00        0.0
2:24              250        0.0         76       20.4      461.6       20.4       22.4       16.0     1014.7       20.6       20.1        0.0        0.0        0.0       0.00       11.4       0.00       0.00        0.0
2:26              250        0.0         76       20.3      461.6       20.3       22.4       16.0     1014.7       20.6       20.1        0.0        0.0        0.0       0.00       11.4       0.00       0.00        0.0
2:28              250        0.0         77       20.2      461.6       20.2       22.4       16.1     1014.6       20.6       20.1        0.0        0.0        0.0       0.00       11.4       0.00       0.00        0.0